createdAt,value
2022-08-03T00:00:26.193Z,99.90
2022-08-03T00:02:52.973Z,99.90
2022-08-03T00:05:19.840Z,99.90
2022-08-03T00:07:46.513Z,99.90
2022-08-03T00:10:15.390Z,99.90
2022-08-03T00:12:42.093Z,99.90
2022-08-03T00:15:11.347Z,99.90
2022-08-03T00:17:52.949Z,99.90
2022-08-03T00:20:21.178Z,99.90
2022-08-03T00:22:47.864Z,99.90
2022-08-03T00:25:14.537Z,99.90
2022-08-03T00:27:41.109Z,99.90
2022-08-03T00:30:08.407Z,99.90
2022-08-03T00:32:35.015Z,99.90
2022-08-03T00:35:08.030Z,99.90
2022-08-03T00:37:40.990Z,99.90
2022-08-03T00:40:12.875Z,99.90
2022-08-03T00:43:00.133Z,99.90
2022-08-03T00:45:30.895Z,99.90
2022-08-03T00:47:58.368Z,99.90
2022-08-03T00:50:27.722Z,99.90
2022-08-03T00:52:56.552Z,99.90
2022-08-03T00:55:23.790Z,99.90
2022-08-03T00:57:50.517Z,99.90
2022-08-03T01:00:20.736Z,99.90
2022-08-03T01:02:49.804Z,99.90
2022-08-03T01:05:16.771Z,99.90
2022-08-03T01:07:49.318Z,99.90
2022-08-03T01:10:50.302Z,99.90
2022-08-03T01:14:01.546Z,99.90
2022-08-03T01:16:22.940Z,99.90
2022-08-03T01:19:46.873Z,99.90
2022-08-03T01:22:23.142Z,99.90
2022-08-03T01:25:09.921Z,99.90
2022-08-03T01:27:58.000Z,99.90
2022-08-03T01:30:31.183Z,99.90
2022-08-03T01:33:03.559Z,99.90
2022-08-03T01:35:38.730Z,99.90
2022-08-03T01:38:28.708Z,99.90
2022-08-03T01:40:57.033Z,99.90
2022-08-03T01:43:55.266Z,99.90
2022-08-03T01:46:17.104Z,99.90
2022-08-03T01:48:46.067Z,99.90
2022-08-03T01:51:15.543Z,99.90
2022-08-03T01:53:42.864Z,99.90
2022-08-03T01:56:10.937Z,99.90
2022-08-03T01:58:38.451Z,99.90
2022-08-03T02:01:06.875Z,99.90
2022-08-03T02:03:37.904Z,99.90
2022-08-03T02:07:00.837Z,99.90
2022-08-03T02:09:19.883Z,99.90
2022-08-03T02:11:47.277Z,99.90
2022-08-03T02:14:15.831Z,99.90
2022-08-03T02:16:45.637Z,99.90
2022-08-03T02:19:13.576Z,99.90
2022-08-03T02:21:57.249Z,99.90
2022-08-03T02:24:28.668Z,99.90
2022-08-03T02:26:56.973Z,99.90
2022-08-03T02:29:39.315Z,99.90
2022-08-03T02:32:14.277Z,99.90
2022-08-03T02:34:46.072Z,99.90
2022-08-03T02:37:14.745Z,99.90
2022-08-03T02:39:42.895Z,99.90
2022-08-03T02:42:12.197Z,99.90
2022-08-03T02:44:43.675Z,99.90
2022-08-03T02:47:12.449Z,99.90
2022-08-03T02:49:50.335Z,99.90
2022-08-03T02:52:20.034Z,99.90
2022-08-03T02:54:48.731Z,99.90
2022-08-03T02:57:16.631Z,99.90
2022-08-03T02:59:44.471Z,99.90
2022-08-03T03:02:12.173Z,99.90
2022-08-03T03:04:41.202Z,99.90
2022-08-03T03:07:26.727Z,99.90
2022-08-03T03:09:56.236Z,99.90
2022-08-03T03:12:23.565Z,99.90
2022-08-03T03:14:50.465Z,99.90
2022-08-03T03:17:18.498Z,99.90
2022-08-03T03:19:45.977Z,99.90
2022-08-03T03:22:13.204Z,99.90
2022-08-03T03:24:41.487Z,99.90
2022-08-03T03:27:08.719Z,99.90
2022-08-03T03:29:39.256Z,99.90
2022-08-03T03:32:12.588Z,99.90
2022-08-03T03:34:39.635Z,99.90
2022-08-03T03:37:06.286Z,99.90
2022-08-03T03:39:33.107Z,99.90
2022-08-03T03:42:00.689Z,99.90
2022-08-03T03:44:29.030Z,99.90
2022-08-03T03:46:57.856Z,99.90
2022-08-03T03:49:24.916Z,99.90
2022-08-03T03:51:55.468Z,99.90
2022-08-03T03:54:22.226Z,99.90
2022-08-03T03:56:52.526Z,99.90
2022-08-03T03:59:19.201Z,99.90
2022-08-03T04:01:46.186Z,99.90
2022-08-03T04:04:31.215Z,99.90
2022-08-03T04:07:16.629Z,99.90
2022-08-03T04:10:14.815Z,99.90
2022-08-03T04:12:50.203Z,99.90
2022-08-03T04:15:20.750Z,99.90
2022-08-03T04:17:50.181Z,99.90
2022-08-03T04:20:20.526Z,99.90
2022-08-03T04:22:52.760Z,99.90
2022-08-03T04:25:23.332Z,99.90
2022-08-03T04:28:07.797Z,99.90
2022-08-03T04:30:39.871Z,99.90
2022-08-03T04:33:07.227Z,99.90
2022-08-03T04:35:59.815Z,99.90
2022-08-03T04:38:24.721Z,99.90
2022-08-03T04:40:52.706Z,99.90
2022-08-03T04:43:21.127Z,99.90
2022-08-03T04:45:49.497Z,99.90
2022-08-03T04:48:16.722Z,99.90
2022-08-03T04:50:43.525Z,99.90
2022-08-03T04:53:10.190Z,99.90
2022-08-03T04:55:36.870Z,99.90
2022-08-03T04:58:04.313Z,99.90
2022-08-03T05:00:30.969Z,99.90
2022-08-03T05:02:58.309Z,99.90
2022-08-03T05:05:25.198Z,99.90
2022-08-03T05:07:51.885Z,99.90
2022-08-03T05:10:20.047Z,99.90
2022-08-03T05:12:48.233Z,99.90
2022-08-03T05:15:15.823Z,99.90
2022-08-03T05:17:42.752Z,99.90
2022-08-03T05:20:10.443Z,99.90
2022-08-03T05:22:37.042Z,99.90
2022-08-03T05:25:04.083Z,99.90
2022-08-03T05:27:30.908Z,99.90
2022-08-03T05:30:31.048Z,99.90
2022-08-03T05:32:44.263Z,99.90
2022-08-03T05:36:01.088Z,99.90
2022-08-03T05:37:57.569Z,99.90
2022-08-03T05:40:24.802Z,99.90
2022-08-03T05:42:53.644Z,99.90
2022-08-03T05:45:21.650Z,99.90
2022-08-03T05:47:50.953Z,99.90
2022-08-03T05:50:19.308Z,99.90
2022-08-03T05:52:46.112Z,99.90
2022-08-03T05:55:13.813Z,99.90
2022-08-03T05:57:40.719Z,99.90
2022-08-03T06:00:11.257Z,99.90
2022-08-03T06:02:39.860Z,99.90
2022-08-03T06:05:07.166Z,99.90
2022-08-03T06:07:33.751Z,99.90
2022-08-03T06:10:37.409Z,99.90
2022-08-03T06:12:50.137Z,99.90
2022-08-03T06:15:16.861Z,99.90
2022-08-03T06:17:50.851Z,99.90
2022-08-03T06:20:21.409Z,99.90
2022-08-03T06:23:00.473Z,99.90
2022-08-03T06:25:28.943Z,99.90
2022-08-03T06:27:55.707Z,99.90
2022-08-03T06:30:22.484Z,99.90
2022-08-03T06:32:52.063Z,99.90
2022-08-03T06:35:19.153Z,99.90
2022-08-03T06:37:48.070Z,99.90
2022-08-03T06:40:16.771Z,99.90
2022-08-03T06:42:50.889Z,99.90
2022-08-03T06:45:18.068Z,99.90
2022-08-03T06:47:44.709Z,99.60
2022-08-03T06:50:16.298Z,99.40
2022-08-03T06:52:43.992Z,99.10
2022-08-03T06:55:11.370Z,98.90
2022-08-03T06:57:38.007Z,98.40
2022-08-03T07:00:09.498Z,98.30
2022-08-03T07:02:39.718Z,97.80
2022-08-03T07:05:07.688Z,97.50
2022-08-03T07:07:34.346Z,97.20
2022-08-03T07:10:02.316Z,96.70
2022-08-03T07:12:30.247Z,96.50
2022-08-03T07:15:02.655Z,96.20
2022-08-03T07:17:31.680Z,96.30
2022-08-03T07:19:59.080Z,95.70
2022-08-03T07:22:25.779Z,95.30
2022-08-03T07:24:52.346Z,94.90
2022-08-03T07:27:19.115Z,94.50
2022-08-03T07:29:45.672Z,94.30
2022-08-03T07:32:12.287Z,94.40
2022-08-03T07:34:38.872Z,93.80
2022-08-03T07:37:05.473Z,92.60
2022-08-03T07:39:32.052Z,93.10
2022-08-03T07:41:58.651Z,92.70
2022-08-03T07:44:25.217Z,92.00
2022-08-03T07:46:51.952Z,91.60
2022-08-03T07:49:18.954Z,91.50
2022-08-03T07:51:45.543Z,91.10
2022-08-03T07:54:12.157Z,89.80
2022-08-03T07:56:39.192Z,90.10
2022-08-03T07:59:05.844Z,90.00
2022-08-03T08:01:35.858Z,88.90
2022-08-03T08:04:02.707Z,87.30
2022-08-03T08:06:29.739Z,86.90
2022-08-03T08:09:01.579Z,85.40
2022-08-03T08:11:28.204Z,85.90
2022-08-03T08:13:54.886Z,82.90
2022-08-03T08:16:21.412Z,82.20
2022-08-03T08:18:48.034Z,80.30
2022-08-03T08:21:14.625Z,77.70
2022-08-03T08:23:43.238Z,76.50
2022-08-03T08:26:11.087Z,75.90
2022-08-03T08:28:37.910Z,74.50
2022-08-03T08:31:04.508Z,70.50
2022-08-03T08:36:18.959Z,67.70
2022-08-03T08:38:45.672Z,65.40
2022-08-03T08:41:14.896Z,62.30
2022-08-03T08:43:42.299Z,57.70
2022-08-03T08:46:12.970Z,53.90
2022-08-03T08:48:51.308Z,50.70
2022-08-03T08:51:20.608Z,49.00
2022-08-03T08:53:52.706Z,47.70
2022-08-03T08:56:41.463Z,46.30
2022-08-03T08:59:47.745Z,43.30
2022-08-03T09:02:16.060Z,43.60
2022-08-03T09:04:43.078Z,43.50
2022-08-03T09:07:19.546Z,43.10
2022-08-03T09:10:11.310Z,42.10
2022-08-03T09:12:42.168Z,41.70
2022-08-03T09:15:18.618Z,40.90
2022-08-03T09:17:48.956Z,41.00
2022-08-03T09:20:18.409Z,40.60
2022-08-03T09:23:00.613Z,40.70
2022-08-03T09:25:36.215Z,40.40
2022-08-03T09:28:12.617Z,40.80
2022-08-03T09:30:44.089Z,40.30
2022-08-03T09:33:12.908Z,39.60
2022-08-03T09:35:53.678Z,38.70
2022-08-03T09:38:26.389Z,39.10
2022-08-03T09:40:59.008Z,38.70
2022-08-03T09:43:27.791Z,38.60
2022-08-03T09:46:04.141Z,38.20
2022-08-03T09:48:34.597Z,38.50
2022-08-03T09:51:13.075Z,38.30
2022-08-03T09:53:58.614Z,38.60
2022-08-03T09:56:41.240Z,38.00
2022-08-03T09:59:09.277Z,37.80
2022-08-03T10:01:37.353Z,37.60
2022-08-03T10:04:05.283Z,37.50
2022-08-03T10:06:32.466Z,37.60
2022-08-03T10:09:17.573Z,37.70
2022-08-03T10:11:44.618Z,36.60
2022-08-03T10:14:19.192Z,36.60
2022-08-03T10:16:47.463Z,37.30
2022-08-03T10:19:15.496Z,36.60
2022-08-03T10:21:49.271Z,36.70
2022-08-03T10:24:20.067Z,36.70
2022-08-03T10:26:49.774Z,36.30
2022-08-03T10:29:28.557Z,36.00
2022-08-03T10:31:58.984Z,36.60
2022-08-03T10:34:35.239Z,36.80
2022-08-03T10:37:06.817Z,36.40
2022-08-03T10:39:33.838Z,36.70
2022-08-03T10:42:02.542Z,36.50
2022-08-03T10:44:37.135Z,36.90
2022-08-03T10:47:04.621Z,36.10
2022-08-03T10:49:34.347Z,36.10
2022-08-03T10:52:31.396Z,36.00
2022-08-03T10:55:10.021Z,35.80
2022-08-03T10:57:43.515Z,35.30
2022-08-03T11:00:14.261Z,35.70
2022-08-03T11:03:03.104Z,35.40
2022-08-03T11:05:31.557Z,35.60
2022-08-03T11:08:27.962Z,35.50
2022-08-03T11:11:03.268Z,36.40
2022-08-03T11:13:33.405Z,35.90
2022-08-03T11:16:05.866Z,35.80
2022-08-03T11:18:34.049Z,36.20
2022-08-03T11:21:00.924Z,36.10
2022-08-03T11:24:03.338Z,35.90
2022-08-03T11:26:33.011Z,36.20
2022-08-03T11:29:18.480Z,36.50
2022-08-03T11:31:50.442Z,36.10
2022-08-03T11:34:18.100Z,35.40
2022-08-03T11:37:21.397Z,35.40
2022-08-03T11:39:51.130Z,35.80
2022-08-03T11:42:23.851Z,36.00
2022-08-03T11:44:51.495Z,36.20
2022-08-03T11:47:20.191Z,36.20
2022-08-03T11:49:48.596Z,35.80
2022-08-03T11:52:17.387Z,36.10
2022-08-03T11:54:44.301Z,36.10
2022-08-03T11:57:11.321Z,35.70
2022-08-03T11:59:38.782Z,36.10
2022-08-03T12:02:09.903Z,35.70
2022-08-03T12:04:53.746Z,36.10
2022-08-03T12:07:25.073Z,36.60
2022-08-03T12:10:12.876Z,36.80
2022-08-03T12:12:44.563Z,37.80
2022-08-03T12:15:13.336Z,38.30
2022-08-03T12:17:41.502Z,38.70
2022-08-03T12:20:09.531Z,40.10
2022-08-03T12:22:39.728Z,40.40
2022-08-03T12:25:08.848Z,40.70
2022-08-03T12:27:36.071Z,41.00
2022-08-03T12:30:03.895Z,41.60
2022-08-03T12:32:31.219Z,42.30
2022-08-03T12:35:01.292Z,42.70
2022-08-03T12:37:28.758Z,42.80
2022-08-03T12:40:05.263Z,42.30
2022-08-03T12:42:37.761Z,42.20
2022-08-03T12:45:23.843Z,42.30
2022-08-03T12:48:01.735Z,42.70
2022-08-03T12:50:34.041Z,43.90
2022-08-03T12:53:03.001Z,42.40
2022-08-03T12:55:57.408Z,43.40
2022-08-03T12:58:33.513Z,44.10
2022-08-03T13:01:00.509Z,43.20
2022-08-03T13:03:39.241Z,43.00
2022-08-03T13:06:13.761Z,43.60
2022-08-03T13:08:40.971Z,43.10
2022-08-03T13:11:52.584Z,43.80
2022-08-03T13:14:13.604Z,43.80
2022-08-03T13:16:46.414Z,43.40
2022-08-03T13:19:15.723Z,43.00
2022-08-03T13:21:53.577Z,42.80
2022-08-03T13:24:30.621Z,43.10
2022-08-03T13:26:58.676Z,43.60
2022-08-03T13:29:25.325Z,44.60
2022-08-03T13:31:52.056Z,44.20
2022-08-03T13:34:23.182Z,43.40
2022-08-03T13:37:08.290Z,43.70
2022-08-03T13:39:35.684Z,43.20
2022-08-03T13:42:22.348Z,43.20
2022-08-03T13:44:48.997Z,43.20
2022-08-03T13:47:16.108Z,43.70
2022-08-03T13:49:42.836Z,43.70
2022-08-03T13:52:27.803Z,43.60
2022-08-03T13:54:54.520Z,44.10
2022-08-03T13:58:04.380Z,44.30
2022-08-03T14:00:08.808Z,43.90
2022-08-03T14:02:35.566Z,43.70
2022-08-03T14:05:02.281Z,44.40
2022-08-03T14:07:28.900Z,44.20
2022-08-03T14:09:55.565Z,44.10
2022-08-03T14:12:22.276Z,43.50
2022-08-03T14:14:48.962Z,43.50
2022-08-03T14:17:16.324Z,43.70
2022-08-03T14:19:53.403Z,43.20
2022-08-03T14:22:21.047Z,43.60
2022-08-03T14:24:47.674Z,43.70
2022-08-03T14:27:16.282Z,43.70
2022-08-03T14:29:42.986Z,43.80
2022-08-03T14:32:13.256Z,44.00
2022-08-03T14:34:40.958Z,43.80
2022-08-03T14:37:08.160Z,43.40
2022-08-03T14:42:21.645Z,44.50
2022-08-03T14:44:48.382Z,44.70
2022-08-03T14:47:15.233Z,43.90
2022-08-03T14:50:38.635Z,44.10
2022-08-03T14:52:29.537Z,43.80
2022-08-03T14:54:56.235Z,43.80
2022-08-03T14:57:23.201Z,43.60
2022-08-03T14:59:55.809Z,43.20
2022-08-03T15:02:24.922Z,43.60
2022-08-03T15:04:52.484Z,43.60
2022-08-03T15:07:20.443Z,43.50
2022-08-03T15:09:47.566Z,43.30
2022-08-03T15:12:14.115Z,43.60
2022-08-03T15:14:40.921Z,44.40
2022-08-03T15:17:07.845Z,43.90
2022-08-03T15:20:01.409Z,44.10
2022-08-03T15:22:25.204Z,44.10
2022-08-03T15:26:03.787Z,44.30
2022-08-03T15:28:02.810Z,44.20
2022-08-03T15:30:31.375Z,44.10
2022-08-03T15:32:57.953Z,43.90
2022-08-03T15:35:24.629Z,44.30
2022-08-03T15:37:51.323Z,44.70
2022-08-03T15:40:17.909Z,44.80
2022-08-03T15:42:44.562Z,44.50
2022-08-03T15:45:11.608Z,44.80
2022-08-03T15:47:39.556Z,44.90
2022-08-03T15:50:09.664Z,45.00
2022-08-03T15:52:36.583Z,44.90
2022-08-03T15:55:03.914Z,45.00
2022-08-03T15:57:30.588Z,44.80
2022-08-03T15:59:57.271Z,44.80
2022-08-03T16:02:23.896Z,44.60
2022-08-03T16:04:50.614Z,44.80
2022-08-03T16:07:37.193Z,44.70
2022-08-03T16:10:04.408Z,44.80
2022-08-03T16:12:30.968Z,44.80
2022-08-03T16:14:59.162Z,45.10
2022-08-03T16:17:25.966Z,45.40
2022-08-03T16:19:54.882Z,45.00
2022-08-03T16:22:23.060Z,45.00
2022-08-03T16:24:51.267Z,45.00
2022-08-03T16:27:36.667Z,45.10
2022-08-03T16:30:06.021Z,45.10
2022-08-03T16:32:32.830Z,45.30
2022-08-03T16:35:00.402Z,45.40
2022-08-03T16:37:56.066Z,45.40
2022-08-03T16:40:17.351Z,45.10
2022-08-03T16:42:46.920Z,45.30
2022-08-03T16:45:14.037Z,45.60
2022-08-03T16:47:40.831Z,45.40
2022-08-03T16:50:14.240Z,45.30
2022-08-03T16:52:46.968Z,45.30
2022-08-03T16:55:15.938Z,45.50
2022-08-03T16:58:02.820Z,45.50
2022-08-03T17:00:34.362Z,45.40
2022-08-03T17:03:19.031Z,45.60
2022-08-03T17:05:49.603Z,45.30
2022-08-03T17:08:18.999Z,45.40
2022-08-03T17:10:53.008Z,45.30
2022-08-03T17:13:22.584Z,45.80
2022-08-03T17:16:00.766Z,45.20
2022-08-03T17:18:34.039Z,45.10
2022-08-03T17:21:05.684Z,45.80
2022-08-03T17:24:12.030Z,45.90
2022-08-03T17:26:46.281Z,46.00
2022-08-03T17:29:23.206Z,45.60
2022-08-03T17:31:53.053Z,45.60
2022-08-03T17:34:20.809Z,45.80
2022-08-03T17:37:27.132Z,46.00
2022-08-03T17:39:58.330Z,46.30
2022-08-03T17:42:39.148Z,46.50
2022-08-03T17:45:07.377Z,46.60
2022-08-03T17:47:42.820Z,46.80
2022-08-03T17:50:24.701Z,47.20
2022-08-03T17:53:07.277Z,47.20
2022-08-03T17:55:56.629Z,47.10
2022-08-03T17:58:53.432Z,47.00
2022-08-03T18:02:06.474Z,46.70
2022-08-03T18:04:55.272Z,46.80
2022-08-03T18:07:24.833Z,46.80
2022-08-03T18:10:11.399Z,47.00
2022-08-03T18:12:51.951Z,47.10
2022-08-03T18:15:30.310Z,47.80
2022-08-03T18:18:10.750Z,47.40
2022-08-03T18:20:42.101Z,47.70
2022-08-03T18:23:11.530Z,47.60
2022-08-03T18:25:57.933Z,48.20
2022-08-03T18:28:27.314Z,48.70
2022-08-03T18:30:55.522Z,49.00
2022-08-03T18:34:17.564Z,49.00
2022-08-03T18:36:11.641Z,50.30
2022-08-03T18:38:46.627Z,50.10
2022-08-03T18:41:17.564Z,50.80
2022-08-03T18:44:08.066Z,50.90
2022-08-03T18:47:15.987Z,50.20
2022-08-03T18:50:12.412Z,51.10
2022-08-03T18:53:02.524Z,52.00
2022-08-03T18:56:01.525Z,53.00
2022-08-03T18:58:48.554Z,54.00
2022-08-03T19:02:01.069Z,53.90
2022-08-03T19:04:41.322Z,54.40
2022-08-03T19:07:17.128Z,54.30
2022-08-03T19:09:54.281Z,54.40
2022-08-03T19:12:40.394Z,54.60
2022-08-03T19:15:12.808Z,56.10
2022-08-03T19:17:52.966Z,55.20
2022-08-03T19:20:25.010Z,55.40
2022-08-03T19:22:53.607Z,55.20
2022-08-03T19:25:20.413Z,55.40
2022-08-03T19:28:04.052Z,55.40
2022-08-03T19:30:35.872Z,55.10
2022-08-03T19:33:12.094Z,55.60
2022-08-03T19:35:51.854Z,56.10
2022-08-03T19:38:28.608Z,57.00
2022-08-03T19:40:59.565Z,57.90
2022-08-03T19:43:53.533Z,59.90
2022-08-03T19:46:22.848Z,60.60
2022-08-03T19:49:02.970Z,61.00
2022-08-03T19:52:00.862Z,61.60
2022-08-03T19:54:29.643Z,61.40
2022-08-03T19:57:01.911Z,61.70
2022-08-03T19:59:29.468Z,62.10
2022-08-03T20:01:56.401Z,62.00
2022-08-03T20:04:23.214Z,62.30
2022-08-03T20:06:52.133Z,62.60
2022-08-03T20:09:20.023Z,62.70
2022-08-03T20:11:48.023Z,62.60
2022-08-03T20:14:20.684Z,62.70
2022-08-03T20:16:53.627Z,62.90
2022-08-03T20:19:20.505Z,63.30
2022-08-03T20:21:49.692Z,63.40
2022-08-03T20:24:26.840Z,64.10
2022-08-03T20:26:56.574Z,64.10
2022-08-03T20:30:04.890Z,64.20
2022-08-03T20:32:23.501Z,63.90
2022-08-03T20:34:52.192Z,64.10
2022-08-03T20:37:19.858Z,64.00
2022-08-03T20:39:48.339Z,64.00
2022-08-03T20:42:21.787Z,63.90
2022-08-03T20:45:06.149Z,64.90
2022-08-03T20:47:36.600Z,64.70
2022-08-03T20:50:09.452Z,65.20
2022-08-03T20:52:49.394Z,66.20
2022-08-03T20:55:18.574Z,66.10
2022-08-03T20:57:49.251Z,66.40
2022-08-03T21:00:19.397Z,66.80
2022-08-03T21:02:48.775Z,66.70
2022-08-03T21:05:15.439Z,67.10
2022-08-03T21:08:06.198Z,66.90
2022-08-03T21:10:37.929Z,67.30
2022-08-03T21:13:23.517Z,68.20
2022-08-03T21:16:06.493Z,68.20
2022-08-03T21:18:45.884Z,67.90
2022-08-03T21:21:15.915Z,68.20
2022-08-03T21:23:48.839Z,68.70
2022-08-03T21:26:18.232Z,69.20
2022-08-03T21:28:49.750Z,70.10
2022-08-03T21:31:25.098Z,70.10
2022-08-03T21:33:57.530Z,70.80
2022-08-03T21:36:26.819Z,70.50
2022-08-03T21:38:56.589Z,71.00
2022-08-03T21:41:29.077Z,71.40
2022-08-03T21:43:56.073Z,72.00
2022-08-03T21:46:23.339Z,72.10
2022-08-03T21:48:56.570Z,72.00
2022-08-03T21:51:43.225Z,71.60
2022-08-03T21:54:10.770Z,71.50
2022-08-03T21:56:41.847Z,71.90
2022-08-03T21:59:15.556Z,72.50
2022-08-03T22:01:45.393Z,71.80
2022-08-03T22:04:53.241Z,71.70
2022-08-03T22:07:01.939Z,72.50
2022-08-03T22:09:29.350Z,72.40
2022-08-03T22:11:55.988Z,72.60
2022-08-03T22:14:22.751Z,73.20
2022-08-03T22:16:49.484Z,73.70
2022-08-03T22:19:16.050Z,73.70
2022-08-03T22:21:46.807Z,73.70
2022-08-03T22:24:15.440Z,73.40
2022-08-03T22:27:03.923Z,73.80
2022-08-03T22:29:33.378Z,74.00
2022-08-03T22:32:00.500Z,74.10
2022-08-03T22:34:28.322Z,73.20
2022-08-03T22:37:00.184Z,73.60
2022-08-03T22:39:28.850Z,74.20
2022-08-03T22:41:58.766Z,73.70
2022-08-03T22:44:27.190Z,73.80
2022-08-03T22:46:53.995Z,73.70
2022-08-03T22:49:21.616Z,73.80
2022-08-03T22:51:51.554Z,74.60
2022-08-03T22:54:18.346Z,75.50
2022-08-03T22:56:46.829Z,74.50
2022-08-03T22:59:40.370Z,75.10
2022-08-03T23:02:20.253Z,75.10
2022-08-03T23:05:00.663Z,75.30
2022-08-03T23:07:28.423Z,75.50
2022-08-03T23:09:57.724Z,76.30
2022-08-03T23:12:25.103Z,75.70
2022-08-03T23:14:55.225Z,75.70
2022-08-03T23:17:23.840Z,75.80
2022-08-03T23:19:52.641Z,75.20
2022-08-03T23:22:30.009Z,75.80
2022-08-03T23:24:58.834Z,76.20
2022-08-03T23:27:27.373Z,76.20
2022-08-03T23:29:54.152Z,76.80
2022-08-03T23:32:21.291Z,76.40
2022-08-03T23:35:08.362Z,76.90
2022-08-03T23:38:04.797Z,77.00
2022-08-03T23:40:24.826Z,77.50
2022-08-03T23:42:52.206Z,77.80
2022-08-03T23:45:20.229Z,78.10
2022-08-03T23:47:47.919Z,78.20
2022-08-03T23:50:15.176Z,78.70
2022-08-03T23:53:05.895Z,78.60
2022-08-03T23:56:03.201Z,78.60
2022-08-03T23:58:51.436Z,79.00
